createdAt,value
2022-11-21T00:01:28.506Z,80.60
2022-11-21T00:03:55.736Z,80.80
2022-11-21T00:06:23.644Z,80.80
2022-11-21T00:08:51.342Z,81.60
2022-11-21T00:11:18.610Z,80.80
2022-11-21T00:13:45.817Z,80.80
2022-11-21T00:16:14.970Z,80.90
2022-11-21T00:18:43.922Z,81.00
2022-11-21T00:21:16.638Z,81.00
2022-11-21T00:23:45.263Z,81.10
2022-11-21T00:26:14.543Z,81.10
2022-11-21T00:28:42.250Z,81.10
2022-11-21T00:31:09.782Z,81.00
2022-11-21T00:33:39.089Z,81.00
2022-11-21T00:36:10.242Z,81.00
2022-11-21T00:38:37.814Z,81.00
2022-11-21T00:41:05.669Z,81.10
2022-11-21T00:43:33.426Z,81.10
2022-11-21T00:46:02.805Z,81.10
2022-11-21T00:48:32.064Z,81.10
2022-11-21T00:51:00.684Z,81.20
2022-11-21T00:53:29.301Z,81.20
2022-11-21T00:55:57.529Z,81.20
2022-11-21T00:58:25.657Z,81.30
2022-11-21T01:00:53.570Z,81.30
2022-11-21T01:03:20.874Z,81.30
2022-11-21T01:05:48.346Z,81.30
2022-11-21T01:08:15.552Z,81.30
2022-11-21T01:10:42.840Z,81.30
2022-11-21T01:13:10.305Z,81.30
2022-11-21T01:15:37.494Z,81.20
2022-11-21T01:18:04.739Z,81.10
2022-11-21T01:20:32.080Z,81.20
2022-11-21T01:22:59.399Z,81.10
2022-11-21T01:25:26.626Z,81.10
2022-11-21T01:27:53.811Z,81.10
2022-11-21T01:30:21.530Z,81.00
2022-11-21T01:32:49.933Z,81.00
2022-11-21T01:35:18.675Z,80.80
2022-11-21T01:37:48.400Z,80.70
2022-11-21T01:40:16.400Z,80.60
2022-11-21T01:42:54.493Z,80.60
2022-11-21T01:46:07.834Z,80.60
2022-11-21T01:48:38.307Z,80.70
2022-11-21T01:51:18.499Z,80.50
2022-11-21T01:53:54.639Z,80.50
2022-11-21T01:56:23.841Z,80.40
2022-11-21T01:58:56.260Z,80.50
2022-11-21T02:01:24.168Z,80.50
2022-11-21T02:03:54.199Z,80.20
2022-11-21T02:06:21.736Z,80.20
2022-11-21T02:08:49.534Z,80.10
2022-11-21T02:11:32.069Z,80.00
2022-11-21T02:14:00.453Z,79.90
2022-11-21T02:16:28.560Z,79.80
2022-11-21T02:18:56.055Z,79.90
2022-11-21T02:21:33.110Z,79.60
2022-11-21T02:24:19.301Z,79.50
2022-11-21T02:26:48.767Z,79.40
2022-11-21T02:29:17.015Z,79.40
2022-11-21T02:31:44.349Z,79.40
2022-11-21T02:34:11.602Z,79.50
2022-11-21T02:36:43.227Z,79.50
2022-11-21T02:39:23.833Z,79.40
2022-11-21T02:42:04.571Z,79.20
2022-11-21T02:44:51.277Z,79.30
2022-11-21T02:47:21.591Z,79.30
2022-11-21T02:49:56.567Z,79.20
2022-11-21T02:52:24.366Z,79.00
2022-11-21T02:54:51.607Z,78.90
2022-11-21T02:57:19.067Z,78.60
2022-11-21T02:59:46.431Z,78.50
2022-11-21T03:02:13.871Z,78.40
2022-11-21T03:04:41.123Z,77.80
2022-11-21T03:07:08.582Z,78.30
2022-11-21T03:09:35.829Z,78.20
2022-11-21T03:12:10.111Z,78.10
2022-11-21T03:14:37.764Z,78.10
2022-11-21T03:17:05.578Z,77.90
2022-11-21T03:19:32.946Z,77.90
2022-11-21T03:22:00.170Z,77.90
2022-11-21T03:24:27.685Z,78.00
2022-11-21T03:26:55.265Z,77.90
2022-11-21T03:29:22.698Z,77.70
2022-11-21T03:31:50.065Z,77.70
2022-11-21T03:34:17.459Z,77.80
2022-11-21T03:36:44.915Z,77.80
2022-11-21T03:39:12.359Z,77.90
2022-11-21T03:41:39.667Z,77.90
2022-11-21T03:44:09.850Z,78.00
2022-11-21T03:46:45.431Z,78.00
2022-11-21T03:49:14.072Z,77.80
2022-11-21T03:51:41.703Z,77.80
2022-11-21T03:54:10.113Z,78.00
2022-11-21T03:56:39.731Z,77.80
2022-11-21T03:59:07.147Z,77.70
2022-11-21T04:01:36.899Z,77.70
2022-11-21T04:04:05.228Z,77.80
2022-11-21T04:06:32.825Z,77.90
2022-11-21T04:09:00.178Z,77.80
2022-11-21T04:11:27.629Z,77.80
2022-11-21T04:13:55.143Z,77.90
2022-11-21T04:16:22.433Z,78.00
2022-11-21T04:18:50.485Z,78.20
2022-11-21T04:21:17.945Z,78.20
2022-11-21T04:23:45.301Z,78.40
2022-11-21T04:26:12.613Z,78.30
2022-11-21T04:28:39.992Z,78.30
2022-11-21T04:31:11.152Z,78.50
2022-11-21T04:33:39.557Z,78.50
2022-11-21T04:36:08.686Z,78.60
2022-11-21T04:38:37.024Z,78.60
2022-11-21T04:41:05.001Z,78.70
2022-11-21T04:43:32.776Z,78.80
2022-11-21T04:46:00.105Z,79.00
2022-11-21T04:48:27.562Z,79.10
2022-11-21T04:50:54.942Z,79.20
2022-11-21T04:53:22.171Z,79.20
2022-11-21T04:55:49.588Z,79.30
2022-11-21T04:58:16.799Z,79.40
2022-11-21T05:00:44.113Z,79.60
2022-11-21T05:03:11.643Z,79.70
2022-11-21T05:05:39.019Z,79.70
2022-11-21T05:08:06.440Z,79.60
2022-11-21T05:10:53.860Z,79.60
2022-11-21T05:13:21.327Z,79.60
2022-11-21T05:15:51.555Z,79.50
2022-11-21T05:18:19.927Z,79.60
2022-11-21T05:20:47.554Z,79.70
2022-11-21T05:23:15.049Z,79.50
2022-11-21T05:25:42.391Z,79.40
2022-11-21T05:28:10.055Z,79.40
2022-11-21T05:30:37.706Z,79.50
2022-11-21T05:33:05.409Z,79.60
2022-11-21T05:35:32.773Z,80.60
2022-11-21T05:38:00.576Z,79.90
2022-11-21T05:40:28.039Z,79.90
2022-11-21T05:43:14.215Z,80.00
2022-11-21T05:45:41.589Z,80.20
2022-11-21T05:48:09.080Z,80.40
2022-11-21T05:50:36.889Z,80.40
2022-11-21T05:53:05.063Z,80.50
2022-11-21T05:55:34.786Z,80.60
2022-11-21T05:58:02.311Z,80.80
2022-11-21T06:00:30.177Z,80.80
2022-11-21T06:03:16.388Z,80.80
2022-11-21T06:05:43.936Z,80.90
2022-11-21T06:08:11.374Z,80.90
2022-11-21T06:10:39.152Z,80.90
2022-11-21T06:13:22.040Z,80.90
2022-11-21T06:15:51.890Z,80.90
2022-11-21T06:18:20.303Z,81.00
2022-11-21T06:20:47.751Z,81.10
2022-11-21T06:23:15.633Z,81.10
2022-11-21T06:25:44.269Z,81.00
2022-11-21T06:28:12.169Z,81.00
2022-11-21T06:30:39.817Z,81.00
2022-11-21T06:33:07.235Z,81.10
2022-11-21T06:35:37.862Z,81.00
2022-11-21T06:38:05.283Z,81.10
2022-11-21T06:40:32.785Z,81.20
2022-11-21T06:43:00.897Z,81.20
2022-11-21T06:45:28.391Z,81.20
2022-11-21T06:47:56.017Z,81.30
2022-11-21T06:50:23.348Z,81.20
2022-11-21T06:52:50.705Z,81.20
2022-11-21T06:55:18.070Z,81.20
2022-11-21T06:57:45.812Z,81.10
2022-11-21T07:00:14.437Z,81.00
2022-11-21T07:02:42.629Z,81.10
2022-11-21T07:05:10.164Z,80.90
2022-11-21T07:07:37.618Z,80.80
2022-11-21T07:10:05.357Z,80.80
2022-11-21T07:12:52.799Z,80.90
2022-11-21T07:15:20.624Z,80.90
2022-11-21T07:17:48.027Z,80.80
2022-11-21T07:20:15.648Z,80.80
2022-11-21T07:22:43.018Z,80.70
2022-11-21T07:25:10.701Z,80.80
2022-11-21T07:27:38.166Z,80.80
2022-11-21T07:30:06.003Z,80.80
2022-11-21T07:32:33.659Z,80.80
2022-11-21T07:35:00.979Z,80.70
2022-11-21T07:37:28.478Z,80.60
2022-11-21T07:39:55.794Z,80.70
2022-11-21T07:42:23.054Z,80.70
2022-11-21T07:44:50.675Z,80.50
2022-11-21T07:47:17.876Z,80.40
2022-11-21T07:49:45.192Z,80.40
2022-11-21T07:52:12.457Z,80.60
2022-11-21T07:54:39.643Z,80.70
2022-11-21T07:57:06.947Z,80.60
2022-11-21T07:59:34.377Z,80.50
2022-11-21T08:02:01.843Z,80.50
2022-11-21T08:04:29.550Z,80.40
2022-11-21T08:06:57.136Z,80.40
2022-11-21T08:09:29.252Z,80.40
2022-11-21T08:11:56.938Z,80.30
2022-11-21T08:14:24.310Z,80.20
2022-11-21T08:16:52.863Z,80.10
2022-11-21T08:19:20.309Z,80.20
2022-11-21T08:21:47.667Z,80.00
2022-11-21T08:24:17.363Z,80.00
2022-11-21T08:26:45.308Z,80.00
2022-11-21T08:29:15.301Z,80.00
2022-11-21T08:31:43.756Z,79.90
2022-11-21T08:34:14.625Z,79.70
2022-11-21T08:36:43.047Z,79.40
2022-11-21T08:39:10.459Z,79.30
2022-11-21T08:41:56.486Z,79.50
2022-11-21T08:44:24.134Z,79.50
2022-11-21T08:46:51.856Z,79.50
2022-11-21T08:49:19.242Z,79.50
2022-11-21T08:51:49.345Z,79.70
2022-11-21T08:54:24.343Z,79.70
2022-11-21T08:56:51.892Z,79.40
2022-11-21T08:59:19.542Z,79.30
2022-11-21T09:01:47.001Z,79.40
2022-11-21T09:04:14.610Z,79.60
2022-11-21T09:06:42.233Z,79.70
2022-11-21T09:09:09.848Z,79.90
2022-11-21T09:11:40.032Z,79.80
2022-11-21T09:14:26.600Z,79.70
2022-11-21T09:17:12.930Z,79.30
2022-11-21T09:19:40.386Z,78.80
2022-11-21T09:22:08.120Z,78.10
2022-11-21T09:24:35.631Z,77.90
2022-11-21T09:27:03.134Z,77.80
2022-11-21T09:29:30.573Z,77.80
2022-11-21T09:31:58.081Z,77.80
2022-11-21T09:34:26.341Z,78.00
2022-11-21T09:36:55.598Z,77.70
2022-11-21T09:39:23.078Z,77.80
2022-11-21T09:42:08.762Z,77.50
2022-11-21T09:45:13.295Z,77.70
2022-11-21T09:47:47.457Z,78.00
2022-11-21T09:50:15.280Z,78.30
2022-11-21T09:52:57.852Z,78.50
2022-11-21T09:56:19.644Z,78.40
2022-11-21T09:59:11.582Z,78.60
2022-11-21T10:01:39.101Z,78.80
2022-11-21T10:04:06.496Z,78.90
2022-11-21T10:06:59.788Z,79.10
2022-11-21T10:09:53.353Z,79.30
2022-11-21T10:12:55.783Z,79.40
2022-11-21T10:15:49.252Z,79.50
2022-11-21T10:18:41.146Z,79.50
2022-11-21T10:21:50.175Z,79.40
2022-11-21T10:24:40.747Z,79.30
2022-11-21T10:27:29.986Z,78.80
2022-11-21T10:30:03.376Z,78.40
2022-11-21T10:32:37.997Z,78.20
2022-11-21T10:35:16.338Z,78.20
2022-11-21T10:37:55.719Z,78.20
2022-11-21T10:40:38.344Z,78.20
2022-11-21T10:43:52.984Z,78.40
2022-11-21T10:46:20.885Z,78.60
2022-11-21T10:49:03.249Z,78.80
2022-11-21T10:51:50.336Z,78.70
2022-11-21T10:54:32.992Z,79.10
2022-11-21T10:57:20.677Z,78.30
2022-11-21T11:00:17.781Z,77.70
2022-11-21T11:02:57.678Z,77.90
2022-11-21T11:05:27.977Z,78.20
2022-11-21T11:08:07.975Z,78.30
2022-11-21T11:10:43.837Z,77.80
2022-11-21T11:13:50.941Z,78.20
2022-11-21T11:16:21.948Z,77.50
2022-11-21T11:19:08.642Z,77.00
2022-11-21T11:21:39.502Z,76.70
2022-11-21T11:24:13.130Z,76.50
2022-11-21T11:26:48.487Z,75.70
2022-11-21T11:29:26.105Z,75.20
2022-11-21T11:31:59.894Z,75.50
2022-11-21T11:34:38.382Z,75.40
2022-11-21T11:37:41.699Z,75.30
2022-11-21T11:40:19.997Z,75.30
2022-11-21T11:43:44.589Z,75.80
2022-11-21T11:46:51.994Z,75.70
2022-11-21T11:50:01.995Z,76.00
2022-11-21T11:52:34.211Z,75.90
2022-11-21T11:55:14.485Z,76.20
2022-11-21T11:57:43.299Z,76.40
2022-11-21T12:00:14.239Z,76.30
2022-11-21T12:02:55.149Z,76.30
2022-11-21T12:05:26.311Z,76.40
2022-11-21T12:11:33.400Z,76.40
2022-11-21T12:14:12.046Z,76.60
2022-11-21T12:16:41.323Z,76.30
2022-11-21T12:19:14.644Z,76.20
2022-11-21T12:21:43.234Z,75.90
2022-11-21T12:24:12.168Z,75.50
2022-11-21T12:26:53.762Z,75.40
2022-11-21T12:29:34.836Z,75.10
2022-11-21T12:32:31.824Z,75.00
2022-11-21T12:35:23.831Z,75.10
2022-11-21T12:38:06.395Z,75.20
2022-11-21T12:40:47.520Z,75.40
2022-11-21T12:43:35.972Z,75.50
2022-11-21T12:46:26.822Z,75.50
2022-11-21T12:49:32.402Z,75.60
2022-11-21T12:52:41.541Z,75.70
2022-11-21T12:55:18.237Z,75.50
2022-11-21T12:58:00.448Z,75.80
2022-11-21T13:00:43.675Z,75.60
2022-11-21T13:03:33.372Z,75.80
2022-11-21T13:06:03.215Z,75.70
2022-11-21T13:08:36.003Z,76.00
2022-11-21T13:11:46.332Z,76.10
2022-11-21T13:14:27.219Z,75.80
2022-11-21T13:17:12.878Z,75.80
2022-11-21T13:19:50.089Z,75.80
2022-11-21T13:22:36.129Z,75.70
2022-11-21T13:25:25.149Z,75.70
2022-11-21T13:27:54.667Z,75.70
2022-11-21T13:30:24.593Z,75.80
2022-11-21T13:32:55.368Z,75.80
2022-11-21T13:35:22.750Z,76.00
2022-11-21T13:38:13.102Z,76.20
2022-11-21T13:41:01.120Z,76.40
2022-11-21T13:43:33.820Z,76.40
2022-11-21T13:46:02.217Z,76.50
2022-11-21T13:48:38.754Z,76.30
2022-11-21T13:51:27.397Z,76.30
2022-11-21T13:54:04.255Z,76.30
2022-11-21T13:57:01.697Z,76.30
2022-11-21T13:59:40.819Z,76.30
2022-11-21T14:02:26.857Z,76.40
2022-11-21T14:05:18.531Z,76.50
2022-11-21T14:07:47.879Z,76.70
2022-11-21T14:10:25.356Z,76.80
2022-11-21T14:12:54.695Z,77.00
2022-11-21T14:15:43.507Z,77.10
2022-11-21T14:18:22.751Z,77.30
2022-11-21T14:20:57.318Z,77.40
2022-11-21T14:23:28.265Z,77.50
2022-11-21T14:26:00.055Z,77.50
2022-11-21T14:28:33.231Z,77.70
2022-11-21T14:31:00.712Z,77.70
2022-11-21T14:33:28.121Z,77.70
2022-11-21T14:36:03.762Z,77.70
2022-11-21T14:38:36.499Z,77.80
2022-11-21T14:41:27.543Z,78.00
2022-11-21T14:44:02.094Z,78.00
2022-11-21T14:46:31.930Z,78.10
2022-11-21T14:49:18.045Z,78.00
2022-11-21T14:51:51.098Z,77.80
2022-11-21T14:54:25.694Z,77.70
2022-11-21T14:57:06.901Z,78.00
2022-11-21T14:59:40.845Z,78.20
2022-11-21T15:02:23.751Z,78.30
2022-11-21T15:04:54.114Z,78.50
2022-11-21T15:07:34.631Z,78.60
2022-11-21T15:10:33.752Z,78.60
2022-11-21T15:13:11.887Z,78.50
2022-11-21T15:15:43.944Z,78.30
2022-11-21T15:18:28.173Z,78.10
2022-11-21T15:21:00.096Z,77.50
2022-11-21T15:23:31.917Z,77.30
2022-11-21T15:26:01.505Z,76.80
2022-11-21T15:28:30.451Z,76.40
2022-11-21T15:31:17.181Z,76.50
2022-11-21T15:34:33.818Z,76.50
2022-11-21T15:37:17.862Z,76.60
2022-11-21T15:39:48.445Z,76.60
2022-11-21T15:42:37.223Z,76.50
2022-11-21T15:45:26.730Z,76.60
2022-11-21T15:47:55.819Z,77.50
2022-11-21T15:50:24.856Z,76.70
2022-11-21T15:52:52.552Z,76.80
2022-11-21T15:55:31.316Z,76.80
2022-11-21T15:57:58.631Z,76.80
2022-11-21T16:00:26.019Z,77.00
2022-11-21T16:02:53.684Z,77.00
2022-11-21T16:05:21.133Z,77.10
2022-11-21T16:07:48.914Z,77.30
2022-11-21T16:10:24.375Z,77.30
2022-11-21T16:12:54.971Z,77.30
2022-11-21T16:15:23.014Z,77.40
2022-11-21T16:17:51.788Z,77.40
2022-11-21T16:20:19.297Z,77.40
2022-11-21T16:22:47.940Z,77.50
2022-11-21T16:25:16.360Z,77.60
2022-11-21T16:27:43.815Z,77.90
2022-11-21T16:30:12.297Z,77.80
2022-11-21T16:32:39.770Z,77.80
2022-11-21T16:35:07.490Z,77.80
2022-11-21T16:37:34.914Z,77.70
2022-11-21T16:40:02.417Z,77.70
2022-11-21T16:42:29.856Z,77.80
2022-11-21T16:44:57.376Z,78.10
2022-11-21T16:47:24.735Z,78.10
2022-11-21T16:49:51.984Z,78.40
2022-11-21T16:52:19.331Z,78.30
2022-11-21T16:54:47.166Z,78.50
2022-11-21T16:57:14.768Z,78.40
2022-11-21T16:59:42.195Z,78.40
2022-11-21T17:02:11.071Z,78.40
2022-11-21T17:04:38.535Z,78.50
2022-11-21T17:07:06.018Z,78.50
2022-11-21T17:09:33.586Z,78.40
2022-11-21T17:12:01.003Z,78.40
2022-11-21T17:14:28.796Z,78.50
2022-11-21T17:16:56.539Z,78.60
2022-11-21T17:19:24.049Z,78.90
2022-11-21T17:21:52.643Z,79.10
2022-11-21T17:24:20.074Z,79.20
2022-11-21T17:26:47.426Z,79.20
2022-11-21T17:29:14.879Z,79.30
2022-11-21T17:31:42.765Z,79.30
2022-11-21T17:34:10.281Z,79.70
2022-11-21T17:36:37.844Z,80.20
2022-11-21T17:39:05.364Z,80.60
2022-11-21T17:41:32.832Z,81.20
2022-11-21T17:44:01.152Z,81.30
2022-11-21T17:46:28.777Z,81.30
2022-11-21T17:48:59.147Z,81.20
2022-11-21T17:51:33.444Z,81.00
2022-11-21T17:54:01.671Z,80.80
2022-11-21T17:56:31.665Z,80.60
2022-11-21T17:58:59.748Z,80.60
2022-11-21T18:01:27.753Z,80.50
2022-11-21T18:03:56.656Z,80.50
2022-11-21T18:06:25.347Z,80.50
2022-11-21T18:08:52.905Z,80.70
2022-11-21T18:11:21.880Z,80.70
2022-11-21T18:13:49.941Z,80.70
2022-11-21T18:16:20.198Z,80.70
2022-11-21T18:18:47.555Z,80.80
2022-11-21T18:21:17.459Z,81.00
2022-11-21T18:23:45.168Z,81.10
2022-11-21T18:26:14.161Z,81.10
2022-11-21T18:28:42.087Z,81.40
2022-11-21T18:31:14.310Z,81.60
2022-11-21T18:33:42.730Z,81.80
2022-11-21T18:36:11.912Z,81.90
2022-11-21T18:38:48.872Z,82.00
2022-11-21T18:41:29.966Z,82.10
2022-11-21T18:43:59.490Z,82.10
2022-11-21T18:46:28.823Z,82.20
2022-11-21T18:49:06.315Z,82.20
2022-11-21T18:51:35.880Z,82.10
2022-11-21T18:54:08.391Z,82.10
2022-11-21T18:56:37.522Z,81.90
2022-11-21T18:59:06.415Z,81.80
2022-11-21T19:01:36.112Z,81.60
2022-11-21T19:04:04.133Z,81.50
2022-11-21T19:06:31.648Z,81.50
2022-11-21T19:08:59.635Z,81.40
2022-11-21T19:11:29.099Z,81.30
2022-11-21T19:13:57.654Z,81.10
2022-11-21T19:16:27.426Z,81.00
2022-11-21T19:19:26.355Z,80.90
2022-11-21T19:21:42.749Z,80.80
2022-11-21T19:24:13.260Z,80.70
2022-11-21T19:26:41.493Z,80.70
2022-11-21T19:29:09.369Z,80.70
2022-11-21T19:31:43.007Z,80.70
2022-11-21T19:34:13.971Z,80.70
2022-11-21T19:36:41.744Z,80.60
2022-11-21T19:39:09.232Z,80.60
2022-11-21T19:41:36.781Z,80.60
2022-11-21T19:44:04.300Z,80.60
2022-11-21T19:46:37.244Z,80.70
2022-11-21T19:49:06.140Z,80.80
2022-11-21T19:51:39.679Z,80.80
2022-11-21T19:54:08.891Z,80.80
2022-11-21T19:56:36.902Z,81.00
2022-11-21T19:59:04.503Z,81.20
2022-11-21T20:01:33.641Z,81.10
2022-11-21T20:04:03.199Z,81.20
2022-11-21T20:06:33.256Z,81.50
2022-11-21T20:09:09.761Z,81.50
2022-11-21T20:11:39.635Z,81.60
2022-11-21T20:14:07.551Z,81.70
2022-11-21T20:16:37.259Z,81.90
2022-11-21T20:19:07.128Z,81.90
2022-11-21T20:21:34.536Z,82.00
2022-11-21T20:24:02.424Z,82.10
2022-11-21T20:26:29.829Z,82.70
2022-11-21T20:28:57.168Z,82.30
2022-11-21T20:31:27.698Z,82.20
2022-11-21T20:34:00.732Z,82.20
2022-11-21T20:36:30.664Z,82.30
2022-11-21T20:39:04.047Z,82.20
2022-11-21T20:41:34.114Z,82.00
2022-11-21T20:45:07.281Z,82.00
2022-11-21T20:46:59.413Z,82.00
2022-11-21T20:49:27.256Z,81.90
2022-11-21T20:54:42.137Z,81.90
2022-11-21T20:57:14.865Z,81.80
2022-11-21T20:59:43.212Z,81.80
2022-11-21T21:02:14.339Z,81.80
2022-11-21T21:04:42.160Z,81.80
2022-11-21T21:07:09.938Z,81.60
2022-11-21T21:09:37.186Z,81.50
2022-11-21T21:12:05.520Z,81.50
2022-11-21T21:14:32.821Z,81.40
2022-11-21T21:17:00.177Z,81.40
2022-11-21T21:19:27.988Z,81.20
2022-11-21T21:21:55.612Z,81.10
2022-11-21T21:24:22.957Z,81.10
2022-11-21T21:26:50.298Z,81.10
2022-11-21T21:29:20.161Z,81.10
2022-11-21T21:31:51.566Z,80.90
2022-11-21T21:34:21.464Z,80.90
2022-11-21T21:36:49.295Z,80.80
2022-11-21T21:39:16.691Z,80.70
2022-11-21T21:41:46.005Z,80.60
2022-11-21T21:44:14.375Z,80.60
2022-11-21T21:46:42.000Z,80.40
2022-11-21T21:49:09.391Z,80.40
2022-11-21T21:51:37.675Z,80.50
2022-11-21T21:54:05.432Z,80.90
2022-11-21T21:56:33.855Z,81.10
2022-11-21T21:59:01.451Z,81.40
2022-11-21T22:01:30.808Z,81.50
2022-11-21T22:04:00.297Z,81.60
2022-11-21T22:06:28.066Z,81.80
2022-11-21T22:08:55.806Z,82.10
2022-11-21T22:11:25.656Z,81.70
2022-11-21T22:14:01.229Z,81.60
2022-11-21T22:16:29.192Z,81.50
2022-11-21T22:18:57.377Z,81.40
2022-11-21T22:21:32.213Z,81.20
2022-11-21T22:26:49.304Z,80.90
2022-11-21T22:29:16.926Z,80.70
2022-11-21T22:31:44.326Z,80.60
2022-11-21T22:34:13.881Z,80.60
2022-11-21T22:36:41.889Z,80.50
2022-11-21T22:39:09.340Z,80.50
2022-11-21T22:41:36.633Z,80.40
2022-11-21T22:44:04.244Z,80.40
2022-11-21T22:46:31.753Z,80.40
2022-11-21T22:48:59.505Z,80.40
2022-11-21T22:51:29.416Z,80.40
2022-11-21T22:53:57.412Z,80.40
2022-11-21T22:56:25.692Z,80.60
2022-11-21T22:58:53.562Z,80.40
2022-11-21T23:01:22.989Z,80.50
2022-11-21T23:03:51.609Z,80.50
2022-11-21T23:06:21.332Z,80.40
2022-11-21T23:08:49.152Z,80.40
2022-11-21T23:11:19.069Z,80.30
2022-11-21T23:13:47.518Z,80.30
2022-11-21T23:16:15.769Z,80.30
2022-11-21T23:18:43.444Z,80.30
2022-11-21T23:21:12.066Z,80.30
2022-11-21T23:23:39.857Z,80.30
2022-11-21T23:26:07.703Z,80.30
2022-11-21T23:28:35.125Z,80.40
2022-11-21T23:31:02.735Z,80.50
2022-11-21T23:33:30.248Z,80.60
2022-11-21T23:35:57.719Z,81.40
2022-11-21T23:38:25.041Z,80.70
2022-11-21T23:40:52.532Z,80.80
2022-11-21T23:43:20.063Z,80.80
2022-11-21T23:45:50.701Z,80.80
2022-11-21T23:48:19.142Z,80.80
2022-11-21T23:50:53.143Z,80.80
2022-11-21T23:53:21.287Z,80.70
2022-11-21T23:55:49.212Z,80.60
2022-11-21T23:58:16.944Z,80.50
